Pagrindinis puslapis
METAR-TAF:

METAR-TAF

Oro uostai :

Olborgas, Danija

platuma: 57-06N, ilguma: 009-51E, Aukštis: 3 m

Dabartinis oras

Ataskaita buvo paskelbta 37 minutes, ne 05:50 UTC
Vėjas 2 kt iš Vakarų
Temperatūra 2°C
Drėgmė 100%
Slėgis 1026 hPa
Matomumas 10 km arba daugiau

METAR: EKYT 100550Z AUTO 26002KT 9999 SCT170/// 02/02 Q1026

Laikas: 08:27 (06:27 UTC)

Prognozė

Ataskaita buvo paskelbta 1 valandą ir 25 minutes, ne 05:02 UTC
Prognozė galioja nuo 10 metu 06 UTC su 11 metu 06 UTC
Vėjas 8 kt iš Vakarų/Šiaurės Vakarų
Matomumas 10 km arba daugiau
Išsisklaidę debesys ne aukštis 20000 ft
Laikinai
nuo 10 metu 06 UTC su 10 metu 07 UTC
Matomumas: 5000 m
rūkana
Tapsmas
nuo 10 metu 20 UTC su 10 metu 23 UTC
Vėjas 3 kt nuo kintamojo kryptimis

TAF: EKYT 100502Z 1006/1106 30008KT 9999 SCT200 TEMPO 1006/1007 5000 BR BECMG 1020/1023 VRB03KT

Orai ataskaitas ir orų prognozės (METAR, TAF).

turimą stotys yra geltonos ir raudonos taškus žemėlapyje.

Perkelti pele per norėdami pamatyti stoties vardą.

Tada spustelėkite, norėdami matyti oro stebėjimo ir prognozės.

Norėdami pakeisti žemėlapį: spustelėkite ant žalios mygtukų su juodo kryžiaus žemyn,; žalią mygtuką su brūkšneliu, jei norite nutolinti; arba žalių rodyklių gretimoms žemėlapius.


METAR-TAF: